sensor_id;sensor_type;location;lat;lon;timestamp;pressure;altitude;pressure_sealevel;temperature;humidity
68807;BME280;55800;54.272;18.558;2023-09-07T00:02:03;102094.44;;;17.51;62.62
68807;BME280;55800;54.272;18.558;2023-09-07T00:04:32;102092.00;;;17.45;61.99
68807;BME280;55800;54.272;18.558;2023-09-07T00:07:02;102096.66;;;17.41;62.03
68807;BME280;55800;54.272;18.558;2023-09-07T00:09:33;102096.81;;;17.38;62.05
68807;BME280;55800;54.272;18.558;2023-09-07T00:12:02;102094.31;;;17.34;62.13
68807;BME280;55800;54.272;18.558;2023-09-07T00:14:32;102096.31;;;17.30;62.03
68807;BME280;55800;54.272;18.558;2023-09-07T00:17:02;102095.63;;;17.25;62.07
68807;BME280;55800;54.272;18.558;2023-09-07T00:19:33;102092.25;;;17.20;62.06
68807;BME280;55800;54.272;18.558;2023-09-07T00:22:05;102091.53;;;17.16;62.59
68807;BME280;55800;54.272;18.558;2023-09-07T00:24:35;102092.75;;;17.09;61.67
68807;BME280;55800;54.272;18.558;2023-09-07T00:27:05;102095.72;;;17.03;62.37
68807;BME280;55800;54.272;18.558;2023-09-07T00:29:35;102096.81;;;16.99;62.36
68807;BME280;55800;54.272;18.558;2023-09-07T00:32:05;102096.13;;;16.94;61.97
68807;BME280;55800;54.272;18.558;2023-09-07T00:34:35;102097.22;;;16.90;62.41
68807;BME280;55800;54.272;18.558;2023-09-07T00:37:04;102104.59;;;16.87;62.48
68807;BME280;55800;54.272;18.558;2023-09-07T00:39:33;102103.91;;;16.82;61.67
68807;BME280;55800;54.272;18.558;2023-09-07T00:42:04;102099.66;;;16.76;63.23
68807;BME280;55800;54.272;18.558;2023-09-07T00:44:33;102101.75;;;16.70;63.70
68807;BME280;55800;54.272;18.558;2023-09-07T00:47:03;102101.00;;;16.66;63.10
68807;BME280;55800;54.272;18.558;2023-09-07T00:49:33;102097.50;;;16.64;62.67
68807;BME280;55800;54.272;18.558;2023-09-07T00:52:03;102100.41;;;16.60;63.93
68807;BME280;55800;54.272;18.558;2023-09-07T00:54:32;102102.22;;;16.59;64.46
68807;BME280;55800;54.272;18.558;2023-09-07T00:57:04;102098.81;;;16.54;63.87
68807;BME280;55800;54.272;18.558;2023-09-07T00:59:34;102096.13;;;16.54;64.10
68807;BME280;55800;54.272;18.558;2023-09-07T01:02:04;102099.91;;;16.50;63.66
68807;BME280;55800;54.272;18.558;2023-09-07T01:04:34;102092.81;;;16.48;63.81
68807;BME280;55800;54.272;18.558;2023-09-07T01:07:09;102091.13;;;16.45;63.70
68807;BME280;55800;54.272;18.558;2023-09-07T01:09:41;102099.25;;;16.43;63.26
68807;BME280;55800;54.272;18.558;2023-09-07T01:12:16;102100.28;;;16.41;63.27
68807;BME280;55800;54.272;18.558;2023-09-07T01:14:45;102090.69;;;16.34;65.31
68807;BME280;55800;54.272;18.558;2023-09-07T01:17:15;102095.19;;;16.33;63.57
68807;BME280;55800;54.272;18.558;2023-09-07T01:19:46;102093.50;;;16.31;63.37
68807;BME280;55800;54.272;18.558;2023-09-07T01:22:19;102089.13;;;16.28;63.54
68807;BME280;55800;54.272;18.558;2023-09-07T01:24:51;102096.47;;;16.25;63.23
68807;BME280;55800;54.272;18.558;2023-09-07T01:27:21;102104.69;;;16.22;63.50
68807;BME280;55800;54.272;18.558;2023-09-07T01:29:52;102099.41;;;16.19;62.94
68807;BME280;55800;54.272;18.558;2023-09-07T01:32:21;102096.91;;;16.14;63.90
68807;BME280;55800;54.272;18.558;2023-09-07T01:34:51;102091.69;;;16.10;63.90
68807;BME280;55800;54.272;18.558;2023-09-07T01:37:23;102100.84;;;16.06;64.36
68807;BME280;55800;54.272;18.558;2023-09-07T01:39:52;102097.28;;;16.05;63.78
68807;BME280;55800;54.272;18.558;2023-09-07T01:42:22;102108.13;;;16.04;63.73
68807;BME280;55800;54.272;18.558;2023-09-07T01:44:51;102103.81;;;16.00;64.82
68807;BME280;55800;54.272;18.558;2023-09-07T01:47:21;102096.69;;;15.99;64.43
68807;BME280;55800;54.272;18.558;2023-09-07T01:49:50;102098.50;;;15.98;65.19
68807;BME280;55800;54.272;18.558;2023-09-07T01:52:21;102098.56;;;15.97;64.58
68807;BME280;55800;54.272;18.558;2023-09-07T01:54:50;102106.66;;;15.97;65.36
68807;BME280;55800;54.272;18.558;2023-09-07T01:57:20;102103.97;;;15.97;64.79
68807;BME280;55800;54.272;18.558;2023-09-07T01:59:49;102100.47;;;15.93;67.35
68807;BME280;55800;54.272;18.558;2023-09-07T02:02:19;102109.56;;;15.91;67.03
68807;BME280;55800;54.272;18.558;2023-09-07T02:04:48;102104.06;;;15.94;66.07
68807;BME280;55800;54.272;18.558;2023-09-07T02:07:18;102109.47;;;15.94;65.08
68807;BME280;55800;54.272;18.558;2023-09-07T02:09:48;102104.19;;;15.91;64.21
68807;BME280;55800;54.272;18.558;2023-09-07T02:12:18;102107.91;;;15.88;64.48
68807;BME280;55800;54.272;18.558;2023-09-07T02:14:48;102101.63;;;15.88;66.89
68807;BME280;55800;54.272;18.558;2023-09-07T02:17:18;102105.22;;;15.88;64.90
68807;BME280;55800;54.272;18.558;2023-09-07T02:19:49;102107.94;;;15.87;64.47
68807;BME280;55800;54.272;18.558;2023-09-07T02:22:18;102104.44;;;15.85;65.25
68807;BME280;55800;54.272;18.558;2023-09-07T02:24:49;102097.28;;;15.84;63.97
68807;BME280;55800;54.272;18.558;2023-09-07T02:27:18;102113.47;;;15.84;64.89
68807;BME280;55800;54.272;18.558;2023-09-07T02:29:47;102115.47;;;15.79;63.95
68807;BME280;55800;54.272;18.558;2023-09-07T02:32:16;102109.25;;;15.77;65.47
68807;BME280;55800;54.272;18.558;2023-09-07T02:34:47;102110.97;;;15.79;67.10
68807;BME280;55800;54.272;18.558;2023-09-07T02:37:16;102104.56;;;15.82;66.18
68807;BME280;55800;54.272;18.558;2023-09-07T02:39:46;102118.88;;;15.84;65.58
68807;BME280;55800;54.272;18.558;2023-09-07T02:42:17;102120.56;;;15.86;65.05
68807;BME280;55800;54.272;18.558;2023-09-07T02:44:47;102112.41;;;15.88;64.81
68807;BME280;55800;54.272;18.558;2023-09-07T02:47:16;102113.22;;;15.90;65.13
68807;BME280;55800;54.272;18.558;2023-09-07T02:49:45;102113.09;;;15.93;64.74
68807;BME280;55800;54.272;18.558;2023-09-07T02:52:15;102113.84;;;15.96;64.67
68807;BME280;55800;54.272;18.558;2023-09-07T02:54:45;102110.97;;;16.01;66.30
68807;BME280;55800;54.272;18.558;2023-09-07T02:57:14;102108.13;;;16.04;66.82
68807;BME280;55800;54.272;18.558;2023-09-07T02:59:46;102113.44;;;16.07;66.06
68807;BME280;55800;54.272;18.558;2023-09-07T03:02:15;102108.69;;;16.12;66.86
68807;BME280;55800;54.272;18.558;2023-09-07T03:04:44;102118.56;;;16.13;66.30
68807;BME280;55800;54.272;18.558;2023-09-07T03:07:14;102119.44;;;16.13;65.31
68807;BME280;55800;54.272;18.558;2023-09-07T03:09:43;102105.88;;;16.15;64.92
68807;BME280;55800;54.272;18.558;2023-09-07T03:12:13;102111.16;;;16.18;64.97
68807;BME280;55800;54.272;18.558;2023-09-07T03:14:45;102106.63;;;16.18;64.72
68807;BME280;55800;54.272;18.558;2023-09-07T03:17:15;102113.72;;;16.21;65.14
68807;BME280;55800;54.272;18.558;2023-09-07T03:19:45;102100.16;;;16.22;64.93
68807;BME280;55800;54.272;18.558;2023-09-07T03:22:15;102105.44;;;16.25;64.68
68807;BME280;55800;54.272;18.558;2023-09-07T03:24:44;102105.38;;;16.27;64.81
68807;BME280;55800;54.272;18.558;2023-09-07T03:27:13;102107.13;;;16.28;64.73
68807;BME280;55800;54.272;18.558;2023-09-07T03:29:45;102109.03;;;16.26;64.68
68807;BME280;55800;54.272;18.558;2023-09-07T03:32:15;102113.59;;;16.24;65.37
68807;BME280;55800;54.272;18.558;2023-09-07T03:34:44;102112.66;;;16.25;65.02
68807;BME280;55800;54.272;18.558;2023-09-07T03:37:13;102114.53;;;16.23;65.81
68807;BME280;55800;54.272;18.558;2023-09-07T03:39:43;102114.47;;;16.24;65.07
68807;BME280;55800;54.272;18.558;2023-09-07T03:42:12;102116.22;;;16.25;65.53
68807;BME280;55800;54.272;18.558;2023-09-07T03:44:42;102120.75;;;16.25;65.33
68807;BME280;55800;54.272;18.558;2023-09-07T03:47:14;102122.53;;;16.26;65.98
68807;BME280;55800;54.272;18.558;2023-09-07T03:49:44;102118.88;;;16.27;67.98
68807;BME280;55800;54.272;18.558;2023-09-07T03:52:14;102125.16;;;16.27;66.25
68807;BME280;55800;54.272;18.558;2023-09-07T03:54:43;102122.44;;;16.27;65.34
68807;BME280;55800;54.272;18.558;2023-09-07T03:57:12;102125.03;;;16.30;65.62
68807;BME280;55800;54.272;18.558;2023-09-07T03:59:42;102132.09;;;16.33;65.58
68807;BME280;55800;54.272;18.558;2023-09-07T04:02:13;102122.13;;;16.35;66.54
68807;BME280;55800;54.272;18.558;2023-09-07T04:04:48;102136.38;;;16.38;66.05
68807;BME280;55800;54.272;18.558;2023-09-07T04:07:18;102129.09;;;16.40;66.34
68807;BME280;55800;54.272;18.558;2023-09-07T04:09:49;102130.78;;;16.43;65.74
68807;BME280;55800;54.272;18.558;2023-09-07T04:12:19;102129.78;;;16.46;65.80
68807;BME280;55800;54.272;18.558;2023-09-07T04:14:48;102127.03;;;16.47;65.30
68807;BME280;55800;54.272;18.558;2023-09-07T04:17:19;102131.44;;;16.50;65.50
68807;BME280;55800;54.272;18.558;2023-09-07T04:19:49;102124.09;;;16.53;65.45
68807;BME280;55800;54.272;18.558;2023-09-07T04:22:18;102128.50;;;16.56;65.33
68807;BME280;55800;54.272;18.558;2023-09-07T04:24:47;102126.66;;;16.56;64.93
68807;BME280;55800;54.272;18.558;2023-09-07T04:27:18;102133.69;;;16.60;65.15
68807;BME280;55800;54.272;18.558;2023-09-07T04:29:48;102138.00;;;16.64;65.38
68807;BME280;55800;54.272;18.558;2023-09-07T04:32:19;102129.75;;;16.67;65.33
68807;BME280;55800;54.272;18.558;2023-09-07T04:34:53;102138.56;;;16.72;65.76
68807;BME280;55800;54.272;18.558;2023-09-07T04:37:24;102149.25;;;16.75;65.98
68807;BME280;55800;54.272;18.558;2023-09-07T04:39:53;102140.91;;;16.80;65.90
68807;BME280;55800;54.272;18.558;2023-09-07T04:42:24;102154.31;;;16.83;65.72
68807;BME280;55800;54.272;18.558;2023-09-07T04:44:53;102141.69;;;16.83;65.03
68807;BME280;55800;54.272;18.558;2023-09-07T04:47:24;102145.03;;;16.88;65.35
68807;BME280;55800;54.272;18.558;2023-09-07T04:49:53;102147.63;;;16.91;65.25
68807;BME280;55800;54.272;18.558;2023-09-07T04:52:24;102148.31;;;16.96;65.23
68807;BME280;55800;54.272;18.558;2023-09-07T04:54:53;102149.94;;;17.00;65.48
68807;BME280;55800;54.272;18.558;2023-09-07T04:57:22;102147.94;;;17.04;65.58
68807;BME280;55800;54.272;18.558;2023-09-07T04:59:52;102156.78;;;17.07;65.62
68807;BME280;55800;54.272;18.558;2023-09-07T05:02:23;102151.19;;;17.12;65.53
68807;BME280;55800;54.272;18.558;2023-09-07T05:04:53;102150.06;;;17.17;65.60
68807;BME280;55800;54.272;18.558;2023-09-07T05:07:23;102150.69;;;17.23;65.78
68807;BME280;55800;54.272;18.558;2023-09-07T05:09:52;102145.97;;;17.28;65.65
68807;BME280;55800;54.272;18.558;2023-09-07T05:12:21;102146.63;;;17.33;65.84
68807;BME280;55800;54.272;18.558;2023-09-07T05:14:51;102152.72;;;17.38;65.74
68807;BME280;55800;54.272;18.558;2023-09-07T05:17:22;102161.50;;;17.43;65.79
68807;BME280;55800;54.272;18.558;2023-09-07T05:19:52;102163.88;;;17.50;65.96
68807;BME280;55800;54.272;18.558;2023-09-07T05:22:22;102159.97;;;17.57;65.81
68807;BME280;55800;54.272;18.558;2023-09-07T05:24:51;102164.13;;;17.64;65.90
68807;BME280;55800;54.272;18.558;2023-09-07T05:27:20;102161.06;;;17.72;66.38
68807;BME280;55800;54.272;18.558;2023-09-07T05:29:50;102171.47;;;17.81;66.36
68807;BME280;55800;54.272;18.558;2023-09-07T05:32:19;102174.69;;;17.89;66.66
68807;BME280;55800;54.272;18.558;2023-09-07T05:34:49;102173.56;;;17.93;66.91
68807;BME280;55800;54.272;18.558;2023-09-07T05:37:19;102170.44;;;18.02;67.59
68807;BME280;55800;54.272;18.558;2023-09-07T05:39:48;102174.75;;;18.06;66.49
68807;BME280;55800;54.272;18.558;2023-09-07T05:42:17;102173.44;;;18.15;66.50
68807;BME280;55800;54.272;18.558;2023-09-07T05:44:47;102183.88;;;18.22;66.47
68807;BME280;55800;54.272;18.558;2023-09-07T05:47:16;102174.50;;;18.29;66.62
68807;BME280;55800;54.272;18.558;2023-09-07T05:49:46;102184.94;;;18.37;66.58
68807;BME280;55800;54.272;18.558;2023-09-07T05:52:17;102191.84;;;18.44;66.85
68807;BME280;55800;54.272;18.558;2023-09-07T05:54:47;102182.47;;;18.51;66.90
68807;BME280;55800;54.272;18.558;2023-09-07T05:57:16;102182.06;;;18.58;66.80
68807;BME280;55800;54.272;18.558;2023-09-07T05:59:45;102190.06;;;18.61;66.70
68807;BME280;55800;54.272;18.558;2023-09-07T06:02:15;102188.78;;;18.68;66.88
68807;BME280;55800;54.272;18.558;2023-09-07T06:04:44;102192.84;;;18.77;67.16
68807;BME280;55800;54.272;18.558;2023-09-07T06:07:14;102186.09;;;18.86;67.12
68807;BME280;55800;54.272;18.558;2023-09-07T06:09:44;102184.91;;;18.91;68.06
68807;BME280;55800;54.272;18.558;2023-09-07T06:12:14;102183.72;;;18.97;67.94
68807;BME280;55800;54.272;18.558;2023-09-07T06:14:43;102191.50;;;19.03;67.40
68807;BME280;55800;54.272;18.558;2023-09-07T06:17:14;102185.78;;;19.09;67.23
68807;BME280;55800;54.272;18.558;2023-09-07T06:19:45;102197.13;;;19.17;67.53
68807;BME280;55800;54.272;18.558;2023-09-07T06:22:15;102190.47;;;19.22;67.50
68807;BME280;55800;54.272;18.558;2023-09-07T06:24:46;102196.47;;;19.29;67.68
68807;BME280;55800;54.272;18.558;2023-09-07T06:27:16;102199.66;;;19.37;67.25
68807;BME280;55800;54.272;18.558;2023-09-07T06:29:46;102202.00;;;19.44;67.51
68807;BME280;55800;54.272;18.558;2023-09-07T06:32:15;102204.38;;;19.51;69.26
68807;BME280;55800;54.272;18.558;2023-09-07T06:34:45;102201.47;;;19.54;69.12
68807;BME280;55800;54.272;18.558;2023-09-07T06:37:14;102207.28;;;19.63;69.01
68807;BME280;55800;54.272;18.558;2023-09-07T06:39:45;102209.66;;;19.69;67.76
68807;BME280;55800;54.272;18.558;2023-09-07T06:42:15;102202.22;;;19.73;68.26
68807;BME280;55800;54.272;18.558;2023-09-07T06:44:47;102204.59;;;19.79;68.13
68807;BME280;55800;54.272;18.558;2023-09-07T06:47:17;102199.72;;;19.85;69.63
68807;BME280;55800;54.272;18.558;2023-09-07T06:49:46;102203.06;;;19.90;68.34
68807;BME280;55800;54.272;18.558;2023-09-07T06:52:17;102210.06;;;19.94;68.29
68807;BME280;55800;54.272;18.558;2023-09-07T06:54:50;102213.31;;;20.01;68.33
68807;BME280;55800;54.272;18.558;2023-09-07T06:57:20;102205.03;;;20.04;68.25
68807;BME280;55800;54.272;18.558;2023-09-07T06:59:49;102207.19;;;20.13;67.73
68807;BME280;55800;54.272;18.558;2023-09-07T07:02:19;102217.78;;;20.17;69.26
68807;BME280;55800;54.272;18.558;2023-09-07T07:04:48;102215.88;;;20.19;67.98
68807;BME280;55800;54.272;18.558;2023-09-07T07:07:18;102209.16;;;20.27;68.11
68807;BME280;55800;54.272;18.558;2023-09-07T07:09:49;102214.34;;;20.31;68.33
68807;BME280;55800;54.272;18.558;2023-09-07T07:12:21;102219.53;;;20.36;68.46
68807;BME280;55800;54.272;18.558;2023-09-07T07:14:50;102219.31;;;20.39;68.18
68807;BME280;55800;54.272;18.558;2023-09-07T07:17:20;102216.59;;;20.39;68.40
68807;BME280;55800;54.272;18.558;2023-09-07T07:19:50;102223.97;;;20.37;68.53
68807;BME280;55800;54.272;18.558;2023-09-07T07:22:19;102221.88;;;20.42;68.25
68807;BME280;55800;54.272;18.558;2023-09-07T07:24:51;102223.25;;;20.49;67.93
68807;BME280;55800;54.272;18.558;2023-09-07T07:27:22;102232.28;;;20.49;68.16
68807;BME280;55800;54.272;18.558;2023-09-07T07:29:51;102233.88;;;20.53;67.86
68807;BME280;55800;54.272;18.558;2023-09-07T07:32:21;102224.50;;;20.59;67.64
68807;BME280;55800;54.272;18.558;2023-09-07T07:34:50;102225.09;;;20.64;67.32
68807;BME280;55800;54.272;18.558;2023-09-07T07:37:20;102221.22;;;20.68;67.55
68807;BME280;55800;54.272;18.558;2023-09-07T07:39:51;102225.44;;;20.73;67.42
68807;BME280;55800;54.272;18.558;2023-09-07T07:42:21;102222.53;;;20.76;68.45
68807;BME280;55800;54.272;18.558;2023-09-07T07:44:51;102233.50;;;20.75;67.96
68807;BME280;55800;54.272;18.558;2023-09-07T07:47:20;102222.25;;;20.81;68.09
68807;BME280;55800;54.272;18.558;2023-09-07T07:49:49;102224.91;;;20.82;69.18
68807;BME280;55800;54.272;18.558;2023-09-07T07:52:19;102230.25;;;20.84;68.62
68807;BME280;55800;54.272;18.558;2023-09-07T07:54:51;102225.41;;;20.89;67.74
68807;BME280;55800;54.272;18.558;2023-09-07T07:57:21;102223.47;;;20.91;68.08
68807;BME280;55800;54.272;18.558;2023-09-07T07:59:50;102221.34;;;20.96;67.48
68807;BME280;55800;54.272;18.558;2023-09-07T08:02:21;102223.69;;;21.02;67.74
68807;BME280;55800;54.272;18.558;2023-09-07T08:04:50;102231.00;;;21.02;68.20
68807;BME280;55800;54.272;18.558;2023-09-07T08:07:20;102232.69;;;21.04;67.61
68807;BME280;55800;54.272;18.558;2023-09-07T08:09:51;102231.53;;;21.08;68.18
68807;BME280;55800;54.272;18.558;2023-09-07T08:12:20;102225.22;;;21.08;67.66
68807;BME280;55800;54.272;18.558;2023-09-07T08:14:50;102229.41;;;21.13;67.29
68807;BME280;55800;54.272;18.558;2023-09-07T08:17:19;102235.53;;;21.17;67.29
68807;BME280;55800;54.272;18.558;2023-09-07T08:19:49;102237.09;;;21.21;67.49
68807;BME280;55800;54.272;18.558;2023-09-07T08:22:26;102238.75;;;21.23;67.54
68807;BME280;55800;54.272;18.558;2023-09-07T08:24:57;102238.59;;;21.26;67.24
68807;BME280;55800;54.272;18.558;2023-09-07T08:27:28;102237.44;;;21.30;68.43
68807;BME280;55800;54.272;18.558;2023-09-07T08:29:57;102234.72;;;21.30;67.85
68807;BME280;55800;54.272;18.558;2023-09-07T08:32:27;102235.50;;;21.32;67.75
68807;BME280;55800;54.272;18.558;2023-09-07T08:34:57;102227.94;;;21.37;67.48
68807;BME280;55800;54.272;18.558;2023-09-07T08:37:30;102230.66;;;21.37;68.53
68807;BME280;55800;54.272;18.558;2023-09-07T08:40:00;102219.66;;;21.39;68.18
68807;BME280;55800;54.272;18.558;2023-09-07T08:42:31;102229.28;;;21.44;67.70
68807;BME280;55800;54.272;18.558;2023-09-07T08:45:03;102228.06;;;21.50;67.79
68807;BME280;55800;54.272;18.558;2023-09-07T08:47:36;102229.72;;;21.52;68.29
68807;BME280;55800;54.272;18.558;2023-09-07T08:50:06;102224.06;;;21.55;68.27
68807;BME280;55800;54.272;18.558;2023-09-07T08:52:36;102223.66;;;21.61;68.40
68807;BME280;55800;54.272;18.558;2023-09-07T08:55:08;102225.22;;;21.65;68.46
68807;BME280;55800;54.272;18.558;2023-09-07T08:57:39;102224.06;;;21.69;68.48
68807;BME280;55800;54.272;18.558;2023-09-07T09:00:10;102227.66;;;21.70;68.81
68807;BME280;55800;54.272;18.558;2023-09-07T09:02:46;102228.06;;;21.78;68.08
68807;BME280;55800;54.272;18.558;2023-09-07T09:05:20;102231.31;;;21.85;67.90
68807;BME280;55800;54.272;18.558;2023-09-07T09:08:00;102236.56;;;21.88;68.26
68807;BME280;55800;54.272;18.558;2023-09-07T09:10:30;102236.28;;;21.92;68.90
68807;BME280;55800;54.272;18.558;2023-09-07T09:13:00;102237.94;;;21.95;68.35
68807;BME280;55800;54.272;18.558;2023-09-07T09:15:29;102230.44;;;21.98;68.29
68807;BME280;55800;54.272;18.558;2023-09-07T09:18:08;102229.16;;;22.04;68.07
68807;BME280;55800;54.272;18.558;2023-09-07T09:20:38;102229.75;;;22.09;68.36
68807;BME280;55800;54.272;18.558;2023-09-07T09:23:08;102224.78;;;22.15;68.15
68807;BME280;55800;54.272;18.558;2023-09-07T09:25:41;102222.53;;;22.22;68.29
68807;BME280;55800;54.272;18.558;2023-09-07T09:28:11;102226.03;;;22.24;68.48
68807;BME280;55800;54.272;18.558;2023-09-07T09:30:40;102218.41;;;22.29;67.86
68807;BME280;55800;54.272;18.558;2023-09-07T09:33:11;102218.88;;;22.35;68.06
68807;BME280;55800;54.272;18.558;2023-09-07T09:35:43;102220.53;;;22.38;69.01
68807;BME280;55800;54.272;18.558;2023-09-07T09:38:14;102216.56;;;22.43;68.45
68807;BME280;55800;54.272;18.558;2023-09-07T09:40:44;102212.44;;;22.50;68.28
68807;BME280;55800;54.272;18.558;2023-09-07T09:43:14;102216.81;;;22.53;67.95
68807;BME280;55800;54.272;18.558;2023-09-07T09:45:44;102220.19;;;22.57;68.90
68807;BME280;55800;54.272;18.558;2023-09-07T09:48:14;102216.34;;;22.61;68.22
68807;BME280;55800;54.272;18.558;2023-09-07T09:50:44;102208.59;;;22.67;68.56
68807;BME280;55800;54.272;18.558;2023-09-07T09:53:17;102212.78;;;22.73;67.88
68807;BME280;55800;54.272;18.558;2023-09-07T09:55:50;102214.31;;;22.77;68.50
68807;BME280;55800;54.272;18.558;2023-09-07T09:58:20;102214.03;;;22.81;68.79
68807;BME280;55800;54.272;18.558;2023-09-07T10:00:53;102205.59;;;22.84;68.65
68807;BME280;55800;54.272;18.558;2023-09-07T10:03:26;102208.91;;;22.89;68.64
68807;BME280;55800;54.272;18.558;2023-09-07T10:06:08;102209.56;;;22.93;68.51
68807;BME280;55800;54.272;18.558;2023-09-07T10:08:37;102210.03;;;22.99;68.13
68807;BME280;55800;54.272;18.558;2023-09-07T10:11:09;102209.59;;;23.05;68.11
68807;BME280;55800;54.272;18.558;2023-09-07T10:13:39;102199.06;;;23.13;68.01
68807;BME280;55800;54.272;18.558;2023-09-07T10:16:08;102200.59;;;23.17;68.19
68807;BME280;55800;54.272;18.558;2023-09-07T10:18:39;102201.13;;;23.22;67.96
68807;BME280;55800;54.272;18.558;2023-09-07T10:21:08;102197.19;;;23.26;68.00
68807;BME280;55800;54.272;18.558;2023-09-07T10:23:39;102203.22;;;23.32;67.77
68807;BME280;55800;54.272;18.558;2023-09-07T10:26:14;102199.13;;;23.39;67.62
68807;BME280;55800;54.272;18.558;2023-09-07T10:28:44;102201.53;;;23.43;68.16
68807;BME280;55800;54.272;18.558;2023-09-07T10:31:15;102194.09;;;23.45;68.08
68807;BME280;55800;54.272;18.558;2023-09-07T10:33:45;102186.75;;;23.46;67.75
68807;BME280;55800;54.272;18.558;2023-09-07T10:36:23;102184.38;;;23.54;68.77
68807;BME280;55800;54.272;18.558;2023-09-07T10:38:54;102182.84;;;23.62;67.84
68807;BME280;55800;54.272;18.558;2023-09-07T10:41:56;102178.69;;;23.69;67.25
68807;BME280;55800;54.272;18.558;2023-09-07T10:44:36;102179.13;;;23.76;67.46
68807;BME280;55800;54.272;18.558;2023-09-07T10:47:40;102181.19;;;23.85;67.66
68807;BME280;55800;54.272;18.558;2023-09-07T10:50:43;102187.84;;;23.93;67.36
68807;BME280;55800;54.272;18.558;2023-09-07T10:53:14;102185.25;;;24.05;67.43
68807;BME280;55800;54.272;18.558;2023-09-07T10:55:44;102180.59;;;24.18;67.68
68807;BME280;55800;54.272;18.558;2023-09-07T10:58:24;102185.91;;;24.32;67.68
68807;BME280;55800;54.272;18.558;2023-09-07T11:00:58;102188.06;;;24.39;67.64
68807;BME280;55800;54.272;18.558;2023-09-07T11:03:28;102181.91;;;24.48;67.47
68807;BME280;55800;54.272;18.558;2023-09-07T11:06:01;102175.41;;;24.62;67.52
68807;BME280;55800;54.272;18.558;2023-09-07T11:08:32;102184.78;;;24.70;67.24
68807;BME280;55800;54.272;18.558;2023-09-07T11:11:02;102180.16;;;24.71;67.04
68807;BME280;55800;54.272;18.558;2023-09-07T11:13:34;102185.19;;;24.77;67.05
68807;BME280;55800;54.272;18.558;2023-09-07T11:16:06;102179.38;;;24.82;66.93
68807;BME280;55800;54.272;18.558;2023-09-07T11:18:36;102177.91;;;24.89;66.66
68807;BME280;55800;54.272;18.558;2023-09-07T11:21:06;102176.69;;;24.93;66.44
68807;BME280;55800;54.272;18.558;2023-09-07T11:27:31;102178.59;;;25.03;66.66
68807;BME280;55800;54.272;18.558;2023-09-07T11:30:02;102173.75;;;25.07;66.19
68807;BME280;55800;54.272;18.558;2023-09-07T11:32:36;102179.88;;;25.10;66.24
68807;BME280;55800;54.272;18.558;2023-09-07T11:35:06;102172.53;;;25.11;66.41
68807;BME280;55800;54.272;18.558;2023-09-07T11:37:36;102172.53;;;25.11;66.29
68807;BME280;55800;54.272;18.558;2023-09-07T11:40:07;102173.78;;;25.18;66.43
68807;BME280;55800;54.272;18.558;2023-09-07T11:42:41;102175.06;;;25.25;66.43
68807;BME280;55800;54.272;18.558;2023-09-07T11:45:12;102173.69;;;25.30;66.38
68807;BME280;55800;54.272;18.558;2023-09-07T11:47:43;102181.66;;;25.33;66.25
68807;BME280;55800;54.272;18.558;2023-09-07T11:50:13;102173.31;;;25.35;66.59
68807;BME280;55800;54.272;18.558;2023-09-07T11:52:42;102171.97;;;25.40;66.13
68807;BME280;55800;54.272;18.558;2023-09-07T11:55:13;102173.38;;;25.46;66.26
68807;BME280;55800;54.272;18.558;2023-09-07T11:57:43;102165.69;;;25.51;66.08
68807;BME280;55800;54.272;18.558;2023-09-07T12:00:15;102166.91;;;25.58;66.27
68807;BME280;55800;54.272;18.558;2023-09-07T12:02:44;102168.69;;;25.59;66.04
68807;BME280;55800;54.272;18.558;2023-09-07T12:05:14;102163.44;;;25.56;65.82
68807;BME280;55800;54.272;18.558;2023-09-07T12:07:44;102161.22;;;25.61;65.98
68807;BME280;55800;54.272;18.558;2023-09-07T12:10:13;102175.03;;;25.60;64.87
68807;BME280;55800;54.272;18.558;2023-09-07T12:12:43;102165.56;;;25.64;65.55
68807;BME280;55800;54.272;18.558;2023-09-07T12:15:14;102168.41;;;25.62;65.50
68807;BME280;55800;54.272;18.558;2023-09-07T12:17:43;102158.59;;;25.60;65.11
68807;BME280;55800;54.272;18.558;2023-09-07T12:20:13;102163.94;;;25.61;64.98
68807;BME280;55800;54.272;18.558;2023-09-07T12:22:42;102172.78;;;25.65;65.27
68807;BME280;55800;54.272;18.558;2023-09-07T12:25:12;102167.28;;;25.65;64.84
68807;BME280;55800;54.272;18.558;2023-09-07T12:27:47;102166.69;;;25.61;65.05
68807;BME280;55800;54.272;18.558;2023-09-07T12:30:23;102171.66;;;25.67;65.41
68807;BME280;55800;54.272;18.558;2023-09-07T12:32:53;102164.41;;;25.66;65.05
68807;BME280;55800;54.272;18.558;2023-09-07T12:35:24;102165.31;;;25.67;64.86
68807;BME280;55800;54.272;18.558;2023-09-07T12:37:54;102163.94;;;25.72;64.90
68807;BME280;55800;54.272;18.558;2023-09-07T12:40:25;102153.84;;;25.73;64.90
68807;BME280;55800;54.272;18.558;2023-09-07T12:42:55;102157.09;;;25.78;64.84
68807;BME280;55800;54.272;18.558;2023-09-07T12:45:26;102160.59;;;25.80;64.66
68807;BME280;55800;54.272;18.558;2023-09-07T12:47:55;102148.50;;;25.82;64.96
68807;BME280;55800;54.272;18.558;2023-09-07T12:50:24;102148.22;;;25.85;64.92
68807;BME280;55800;54.272;18.558;2023-09-07T12:52:54;102141.03;;;25.84;64.87
68807;BME280;55800;54.272;18.558;2023-09-07T12:55:23;102147.13;;;25.88;64.84
68807;BME280;55800;54.272;18.558;2023-09-07T12:57:53;102150.72;;;25.88;64.95
68807;BME280;55800;54.272;18.558;2023-09-07T13:00:22;102139.53;;;25.91;64.75
68807;BME280;55800;54.272;18.558;2023-09-07T13:02:53;102150.38;;;25.93;64.91